Time;durP1;ratioP1;P1;durP2;ratioP2;P2;SDS_P1;SDS_P2;PMS_P1;PMS_P2;Temp;Humidity;BMP_temperature;BMP_pressure;BME280_temperature;BME280_humidity;BME280_pressure;Samples;Min_cycle;Max_cycle;Signal;HPM_P1;HPM_P2
2022/08/06 00:00:47;;;;;;;10.32;10.02;;;17.90;99.90;;;;;;6204657;23;20246;-82
2022/08/06 00:03:16;;;;;;;10.10;9.80;;;17.90;99.90;;;;;;6204281;23;20282;-81
2022/08/06 00:05:47;;;;;;;10.05;9.75;;;17.90;99.90;;;;;;6214813;23;20259;-82
2022/08/06 00:08:16;;;;;;;10.35;10.05;;;17.80;99.90;;;;;;6220590;23;20246;-81
2022/08/06 00:10:45;;;;;;;10.10;9.80;;;17.80;99.90;;;;;;6220357;23;20243;-82
2022/08/06 00:13:18;;;;;;;10.20;9.90;;;17.70;99.90;;;;;;6220443;23;20171;-83
2022/08/06 00:15:46;;;;;;;10.27;9.98;;;17.60;99.90;;;;;;6219902;23;20251;-84
2022/08/06 00:18:13;;;;;;;10.35;10.05;;;17.70;99.90;;;;;;6220004;23;20194;-83
2022/08/06 00:20:43;;;;;;;10.30;10.00;;;17.70;99.90;;;;;;6219721;23;20196;-83
2022/08/06 00:23:12;;;;;;;10.15;9.85;;;17.60;99.90;;;;;;6216876;23;20191;-82
2022/08/06 00:25:41;;;;;;;9.90;9.60;;;17.70;99.90;;;;;;6211483;23;20215;-83
2022/08/06 00:28:11;;;;;;;10.07;9.77;;;17.70;99.90;;;;;;6208674;23;20202;-83
2022/08/06 00:33:28;;;;;;;10.18;9.88;;;17.70;99.90;;;;;;6207836;23;20210;-82
2022/08/06 00:35:57;;;;;;;10.05;9.75;;;17.70;99.90;;;;;;6205727;23;20250;-82
2022/08/06 00:38:27;;;;;;;10.07;9.77;;;17.90;99.90;;;;;;6205447;23;20233;-82
2022/08/06 00:40:56;;;;;;;9.88;9.57;;;17.80;99.90;;;;;;6203923;23;20239;-82
2022/08/06 00:43:25;;;;;;;10.10;9.80;;;17.90;99.90;;;;;;6203958;23;20208;-82
2022/08/06 00:45:58;;;;;;;10.00;9.70;;;17.80;99.90;;;;;;6202780;23;20196;-81
2022/08/06 00:48:25;;;;;;;10.07;9.77;;;17.80;99.90;;;;;;6203473;23;20215;-82
2022/08/06 00:50:54;;;;;;;10.10;9.80;;;17.90;99.90;;;;;;6203282;23;20195;-82
2022/08/06 00:53:23;;;;;;;10.30;10.00;;;17.80;99.90;;;;;;6204704;23;20188;-82
2022/08/06 00:55:52;;;;;;;10.60;10.30;;;17.80;99.90;;;;;;6202662;23;20203;-81
2022/08/06 00:58:22;;;;;;;10.20;9.90;;;17.80;99.90;;;;;;6204069;23;20223;-82
2022/08/06 01:00:51;;;;;;;10.00;9.70;;;17.70;99.90;;;;;;6203584;23;20214;-82
2022/08/06 01:06:08;;;;;;;10.18;9.88;;;17.60;99.90;;;;;;6200297;23;20206;-82
2022/08/06 01:08:38;;;;;;;10.05;9.75;;;17.60;99.90;;;;;;6203292;23;20223;-82
2022/08/06 01:11:08;;;;;;;10.05;9.75;;;17.60;99.90;;;;;;6203876;23;20227;-81
2022/08/06 01:13:38;;;;;;;10.20;9.90;;;17.60;99.90;;;;;;6203594;23;20238;-82
2022/08/06 01:16:16;;;;;;;9.98;9.68;;;17.60;99.90;;;;;;6202203;23;20262;-82
2022/08/06 01:18:58;;;;;;;10.00;9.70;;;17.60;99.90;;;;;;6201299;23;20231;-83
2022/08/06 01:21:51;;;;;;;9.70;9.40;;;17.60;99.90;;;;;;6202620;23;20191;-82
2022/08/06 01:24:48;;;;;;;9.70;9.40;;;17.60;99.90;;;;;;6202436;23;20212;-82
2022/08/06 01:27:46;;;;;;;9.80;9.50;;;17.60;99.90;;;;;;6202888;23;20207;-82
2022/08/06 01:30:20;;;;;;;9.80;9.50;;;17.50;99.90;;;;;;6202272;23;20215;-82
2022/08/06 01:32:58;;;;;;;9.82;9.52;;;17.50;99.90;;;;;;6203088;23;20192;-82
2022/08/06 01:35:30;;;;;;;9.75;9.45;;;17.50;99.90;;;;;;6201707;23;20278;-82
2022/08/06 01:38:07;;;;;;;9.80;9.50;;;17.50;99.90;;;;;;6202860;23;20227;-82
2022/08/06 01:40:38;;;;;;;9.60;9.30;;;17.50;99.90;;;;;;6202791;23;20206;-82
2022/08/06 01:43:13;;;;;;;9.63;9.32;;;17.60;99.90;;;;;;6202778;23;20250;-82
2022/08/06 01:45:43;;;;;;;9.95;9.65;;;17.50;99.90;;;;;;6202816;23;20208;-82
2022/08/06 01:48:21;;;;;;;9.70;9.40;;;17.50;99.90;;;;;;6202926;23;20674;-82
2022/08/06 01:50:50;;;;;;;9.65;9.35;;;17.50;99.90;;;;;;6203293;23;20202;-82
2022/08/06 01:53:29;;;;;;;9.73;9.43;;;17.60;99.90;;;;;;6203152;23;20195;-82
2022/08/06 01:56:01;;;;;;;9.52;9.23;;;17.50;99.90;;;;;;6202798;23;20207;-82
2022/08/06 01:58:39;;;;;;;9.90;9.60;;;17.50;99.90;;;;;;6203470;23;20255;-82
2022/08/06 02:01:16;;;;;;;9.93;9.63;;;17.50;99.90;;;;;;6203600;23;20195;-82
2022/08/06 02:03:47;;;;;;;9.90;9.60;;;17.50;99.90;;;;;;6203012;23;20194;-82
2022/08/06 02:06:22;;;;;;;9.80;9.50;;;17.50;99.90;;;;;;6202125;23;20207;-82
2022/08/06 02:08:52;;;;;;;9.80;9.50;;;17.60;99.90;;;;;;6202812;23;20199;-82
2022/08/06 02:11:21;;;;;;;9.80;9.50;;;17.50;99.90;;;;;;6203996;23;20294;-82
2022/08/06 02:14:00;;;;;;;9.82;9.52;;;17.50;99.90;;;;;;6203381;23;20204;-82
2022/08/06 02:16:32;;;;;;;9.80;9.50;;;17.50;99.90;;;;;;6202594;23;20258;-82
2022/08/06 02:19:06;;;;;;;9.80;9.50;;;17.40;99.90;;;;;;6202071;23;20203;-82
2022/08/06 02:21:37;;;;;;;9.77;9.48;;;17.40;99.90;;;;;;6202854;23;20191;-82
2022/08/06 02:24:08;;;;;;;9.77;9.48;;;17.30;99.90;;;;;;6202380;23;20195;-83
2022/08/06 02:26:38;;;;;;;9.63;9.32;;;17.30;99.90;;;;;;6202650;23;20215;-82
2022/08/06 02:29:13;;;;;;;9.80;9.50;;;17.40;99.90;;;;;;6204019;23;20206;-82
2022/08/06 02:31:43;;;;;;;9.80;9.50;;;17.30;99.90;;;;;;6204459;23;20192;-82
2022/08/06 02:34:13;;;;;;;9.90;9.60;;;17.30;99.90;;;;;;6203478;23;20215;-82
2022/08/06 02:36:46;;;;;;;9.90;9.60;;;17.30;99.90;;;;;;6202020;23;20211;-82
2022/08/06 02:39:21;;;;;;;9.50;9.20;;;17.30;99.90;;;;;;6202300;23;20223;-82
2022/08/06 02:41:59;;;;;;;9.68;9.38;;;17.30;99.90;;;;;;6202671;23;20195;-82
2022/08/06 02:44:45;;;;;;;10.15;9.85;;;17.20;99.90;;;;;;6202376;23;20198;-82
2022/08/06 02:47:18;;;;;;;9.80;9.50;;;17.10;99.90;;;;;;6202704;23;20192;-82
2022/08/06 02:49:54;;;;;;;9.90;9.60;;;17.00;99.90;;;;;;6202281;23;20206;-82
2022/08/06 02:52:33;;;;;;;9.73;9.43;;;17.00;99.90;;;;;;6200854;23;20768;-82
2022/08/06 02:55:11;;;;;;;9.90;9.60;;;17.00;99.90;;;;;;6200352;23;20278;-82
2022/08/06 02:57:48;;;;;;;9.90;9.60;;;16.80;99.90;;;;;;6201385;23;20203;-82
2022/08/06 03:00:19;;;;;;;10.02;9.73;;;16.80;99.90;;;;;;6213267;23;20191;-82
2022/08/06 03:02:48;;;;;;;10.00;9.70;;;16.80;99.90;;;;;;6212083;23;20188;-82
2022/08/06 03:05:26;;;;;;;9.90;9.60;;;16.80;99.90;;;;;;6209519;23;20204;-82
2022/08/06 03:07:56;;;;;;;10.10;9.80;;;16.80;99.90;;;;;;6208701;23;20242;-82
2022/08/06 03:10:27;;;;;;;9.85;9.55;;;16.80;99.90;;;;;;6207082;23;20200;-82
2022/08/06 03:12:56;;;;;;;10.00;9.70;;;16.80;99.90;;;;;;6206144;23;20192;-82
2022/08/06 03:15:34;;;;;;;9.95;9.65;;;16.70;99.90;;;;;;6205182;23;20551;-82
2022/08/06 03:18:05;;;;;;;10.20;9.90;;;16.70;99.90;;;;;;6204781;23;20212;-82
2022/08/06 03:20:35;;;;;;;10.10;9.80;;;16.70;99.90;;;;;;6203724;23;20192;-82
2022/08/06 03:23:11;;;;;;;10.10;9.80;;;16.70;99.90;;;;;;6204204;23;20191;-82
2022/08/06 03:25:41;;;;;;;9.90;9.60;;;16.70;99.90;;;;;;6203424;23;20199;-82
2022/08/06 03:28:10;;;;;;;10.05;9.75;;;16.70;99.90;;;;;;6202999;23;20194;-82
2022/08/06 03:33:26;;;;;;;10.02;9.73;;;16.60;99.90;;;;;;6203439;23;20192;-82
2022/08/06 03:35:56;;;;;;;10.07;9.77;;;16.60;99.90;;;;;;6203162;23;20219;-83
2022/08/06 03:38:26;;;;;;;10.10;9.80;;;16.60;99.90;;;;;;6209520;23;20195;-82
2022/08/06 03:40:56;;;;;;;10.30;10.00;;;16.60;99.90;;;;;;6207523;23;21087;-82
2022/08/06 03:43:24;;;;;;;10.35;10.05;;;16.50;99.90;;;;;;6208897;23;20223;-82
2022/08/06 03:46:01;;;;;;;10.60;10.30;;;16.50;99.90;;;;;;6205577;23;20207;-82
2022/08/06 03:48:33;;;;;;;10.27;9.98;;;16.50;99.90;;;;;;6202201;23;20183;-82
2022/08/06 03:51:04;;;;;;;10.30;10.00;;;16.50;99.90;;;;;;6201513;23;20192;-82
2022/08/06 03:53:35;;;;;;;10.18;9.88;;;16.40;99.90;;;;;;6201773;23;20207;-82
2022/08/06 03:56:05;;;;;;;10.10;9.80;;;16.40;99.90;;;;;;6201289;23;20204;-82
2022/08/06 03:58:38;;;;;;;10.07;9.77;;;16.50;99.90;;;;;;6203563;23;20211;-82
2022/08/06 04:01:16;;;;;;;10.07;9.77;;;16.50;99.90;;;;;;6205166;23;20247;-82
2022/08/06 04:03:46;;;;;;;10.30;10.00;;;16.50;99.90;;;;;;6209909;23;20195;-82
2022/08/06 04:06:15;;;;;;;10.20;9.90;;;16.50;99.90;;;;;;6206889;23;20216;-82
2022/08/06 04:08:45;;;;;;;10.00;9.70;;;16.50;99.90;;;;;;6212568;23;20187;-82
2022/08/06 04:11:14;;;;;;;9.90;9.60;;;16.50;99.90;;;;;;6211845;23;20195;-82
2022/08/06 04:13:43;;;;;;;9.93;9.63;;;16.40;99.90;;;;;;6212476;23;20327;-83
2022/08/06 04:16:16;;;;;;;9.90;9.60;;;16.50;99.90;;;;;;6211013;23;20207;-82
2022/08/06 04:18:45;;;;;;;10.00;9.70;;;16.50;99.90;;;;;;6212269;23;20207;-82
2022/08/06 04:21:21;;;;;;;10.00;9.70;;;16.40;99.90;;;;;;6212849;23;20207;-82
2022/08/06 04:23:50;;;;;;;10.00;9.70;;;16.40;99.90;;;;;;6214411;23;20191;-82
2022/08/06 04:26:31;;;;;;;9.90;9.60;;;16.40;99.90;;;;;;6212400;23;20266;-82
2022/08/06 04:31:53;;;;;;;10.10;9.80;;;16.30;99.90;;;;;;6207490;23;20198;-82
2022/08/06 04:34:25;;;;;;;9.90;9.60;;;16.40;99.90;;;;;;6212138;23;20188;-82
2022/08/06 04:36:53;;;;;;;10.30;10.00;;;16.40;99.90;;;;;;6211387;23;20198;-82
2022/08/06 04:39:23;;;;;;;10.10;9.80;;;16.40;99.90;;;;;;6212809;23;20199;-82
2022/08/06 04:41:51;;;;;;;10.15;9.85;;;16.30;99.90;;;;;;6215658;23;20203;-82
2022/08/06 04:44:20;;;;;;;10.07;9.77;;;16.30;99.90;;;;;;6210165;23;20208;-82
2022/08/06 04:49:38;;;;;;;10.00;9.70;;;16.30;99.90;;;;;;6201327;23;20244;-82
2022/08/06 04:52:06;;;;;;;10.15;9.85;;;16.30;99.90;;;;;;6202172;23;20198;-83
2022/08/06 04:54:36;;;;;;;9.88;9.57;;;16.30;99.90;;;;;;6201807;23;20274;-82
2022/08/06 05:35:05;;;;;;;9.90;9.60;;;16.30;99.90;;;;;;5942354;23;20202;-80
2022/08/06 06:45:15;;;;;;;11.15;10.85;;;17.50;99.90;;;;;;6035063;23;20195;-81
2022/08/06 06:48:07;;;;;;;10.82;10.52;;;17.60;99.90;;;;;;6126041;23;20298;-81
2022/08/06 06:50:49;;;;;;;11.00;10.70;;;17.60;99.90;;;;;;6199165;23;20216;-80
2022/08/06 06:53:53;;;;;;;10.82;10.52;;;17.70;99.90;;;;;;6202045;23;20199;-80
2022/08/06 07:09:37;;;;;;;10.48;10.18;;;18.30;99.90;;;;;;6085915;23;20209;-82
2022/08/06 07:12:23;;;;;;;10.60;10.30;;;18.40;99.90;;;;;;6171320;23;20251;-82
2022/08/06 07:15:03;;;;;;;10.77;10.48;;;18.40;99.90;;;;;;6174910;23;20279;-83
2022/08/06 07:17:40;;;;;;;10.55;10.25;;;18.40;99.90;;;;;;6173443;23;20216;-83
2022/08/06 07:27:23;;;;;;;11.07;10.77;;;18.50;99.90;;;;;;6109932;23;20226;-84
2022/08/06 07:30:27;;;;;;;11.20;10.90;;;18.60;99.90;;;;;;6168684;23;20275;-82
2022/08/06 07:33:25;;;;;;;10.90;10.60;;;18.80;99.90;;;;;;6168998;23;20188;-83
2022/08/06 07:36:02;;;;;;;10.90;10.60;;;19.00;99.90;;;;;;6174966;23;20207;-83
2022/08/06 07:39:03;;;;;;;10.90;10.60;;;19.20;99.90;;;;;;6172689;23;20211;-85
2022/08/06 07:41:50;;;;;;;;;;;;;;;;;;;;;
2022/08/06 07:44:29;;;;;;;11.18;10.88;;;19.30;99.90;;;;;;6170848;23;20188;-80
2022/08/06 07:47:06;;;;;;;10.98;10.68;;;19.20;99.90;;;;;;6171045;23;20707;-82
2022/08/06 07:49:54;;;;;;;11.05;10.75;;;19.20;99.90;;;;;;6170388;23;20207;-84
2022/08/06 07:52:22;;;;;;;10.85;10.55;;;19.10;99.90;;;;;;6169281;23;20203;-82
2022/08/06 07:54:53;;;;;;;10.98;10.68;;;19.20;99.90;;;;;;6169473;23;20207;-82
2022/08/06 07:57:22;;;;;;;11.00;10.70;;;19.40;99.90;;;;;;6170451;23;20207;-82
2022/08/06 07:59:54;;;;;;;10.80;10.50;;;19.50;99.90;;;;;;6170277;23;20319;-84
2022/08/06 08:02:31;;;;;;;10.50;10.20;;;19.50;99.90;;;;;;6170806;23;20192;-85
2022/08/06 08:12:10;;;;;;;10.35;10.05;;;19.80;99.90;;;;;;6052144;23;20206;-83
2022/08/06 08:14:47;;;;;;;10.70;10.40;;;20.00;99.90;;;;;;6131441;23;20203;-85
2022/08/06 08:17:37;;;;;;;10.68;10.38;;;20.00;99.90;;;;;;6171264;23;20211;-85
2022/08/06 08:20:13;;;;;;;10.75;10.45;;;20.10;99.90;;;;;;6169701;23;20204;-84
2022/08/06 08:26:05;;;;;;;10.60;10.30;;;20.10;99.90;;;;;;6162084;23;20200;-86
2022/08/06 10:02:13;;;;;;;10.50;10.20;;;23.80;99.90;;;;;;6142875;23;20200;-89
2022/08/06 10:05:14;;;;;;;10.63;10.32;;;24.00;99.90;;;;;;6200225;23;20278;-88
2022/08/06 10:42:38;;;;;;;11.00;10.70;;;24.60;99.90;;;;;;6020124;23;20290;-89
2022/08/06 10:45:55;;;;;;;11.07;10.77;;;24.50;99.90;;;;;;6048574;23;20216;-89
2022/08/06 10:52:21;;;;;;;11.33;11.03;;;25.20;99.90;;;;;;5883471;24;20423;-84
2022/08/06 10:54:49;;;;;;;11.38;11.07;;;25.50;99.90;;;;;;6050728;23;20198;-83
2022/08/06 10:57:20;;;;;;;11.32;11.02;;;25.60;99.90;;;;;;6109324;23;20211;-84
2022/08/06 10:59:58;;;;;;;11.27;10.98;;;25.40;99.90;;;;;;6182080;23;20196;-86
2022/08/06 11:02:36;;;;;;;11.35;11.05;;;25.60;99.90;;;;;;6187294;23;20245;-85
2022/08/06 11:05:12;;;;;;;11.30;11.00;;;26.00;99.90;;;;;;6185866;23;20196;-84
2022/08/06 11:11:44;;;;;;;11.32;11.02;;;26.20;99.90;;;;;;6177984;23;20192;-85
2022/08/06 11:14:14;;;;;;;11.10;10.80;;;26.40;99.90;;;;;;6118928;23;20242;-85
2022/08/06 11:16:42;;;;;;;11.10;10.80;;;26.70;99.90;;;;;;6168111;23;20196;-85
2022/08/06 11:19:12;;;;;;;10.95;10.65;;;26.90;99.90;;;;;;6167671;23;20208;-85
2022/08/06 11:21:48;;;;;;;11.00;10.70;;;27.20;99.90;;;;;;6166777;23;20283;-85
2022/08/06 11:24:18;;;;;;;10.98;10.68;;;27.40;99.90;;;;;;6167567;23;20202;-85
2022/08/06 11:26:47;;;;;;;11.10;10.80;;;27.60;99.90;;;;;;6167373;23;20252;-86
2022/08/06 11:29:18;;;;;;;11.00;10.70;;;27.60;99.90;;;;;;6167706;23;20204;-85
2022/08/06 11:31:50;;;;;;;11.02;10.73;;;27.50;99.90;;;;;;6167169;23;20214;-87
2022/08/06 11:34:24;;;;;;;10.88;10.57;;;27.70;99.90;;;;;;6167653;23;20193;-87
2022/08/06 11:37:02;;;;;;;11.10;10.80;;;27.50;99.90;;;;;;6167418;23;20187;-87
2022/08/06 11:39:31;;;;;;;11.20;10.90;;;27.90;99.90;;;;;;6168009;23;20196;-87
2022/08/06 11:42:03;;;;;;;11.13;10.82;;;27.80;99.90;;;;;;6167845;23;20203;-85
2022/08/06 11:44:40;;;;;;;10.80;10.50;;;28.10;99.90;;;;;;6167843;23;20208;-87
2022/08/06 11:49:56;;;;;;;10.70;10.40;;;28.40;99.90;;;;;;6167207;23;20199;-86
2022/08/06 11:52:43;;;;;;;10.55;10.25;;;28.50;99.90;;;;;;6167811;23;20196;-86
2022/08/06 11:55:21;;;;;;;10.82;10.52;;;28.70;99.90;;;;;;6167522;23;20200;-86
2022/08/06 11:57:51;;;;;;;10.70;10.40;;;28.60;99.90;;;;;;6178201;23;20208;-86
2022/08/06 12:00:32;;;;;;;10.70;10.40;;;28.50;99.90;;;;;;6199075;23;20200;-87
2022/08/06 12:03:00;;;;;;;11.07;10.77;;;28.30;99.90;;;;;;6198749;23;20219;-86
2022/08/06 12:05:57;;;;;;;10.80;10.50;;;28.60;99.90;;;;;;6198117;23;20224;-86
2022/08/06 12:08:35;;;;;;;10.90;10.60;;;28.50;99.90;;;;;;6198577;23;20204;-85
2022/08/06 12:11:36;;;;;;;10.90;10.60;;;28.70;99.90;;;;;;6198524;23;20289;-85
2022/08/06 12:14:06;;;;;;;11.20;10.90;;;29.10;99.90;;;;;;6198173;23;20195;-85
2022/08/06 12:16:47;;;;;;;11.18;10.88;;;29.50;99.90;;;;;;6197824;23;20207;-87
2022/08/06 12:19:17;;;;;;;11.10;10.80;;;29.40;99.90;;;;;;6199491;23;20272;-86
2022/08/06 12:21:54;;;;;;;11.00;10.70;;;29.30;99.90;;;;;;6202014;23;20204;-86
2022/08/06 12:24:30;;;;;;;10.90;10.60;;;29.00;99.90;;;;;;6201122;23;20206;-86
2022/08/06 12:27:00;;;;;;;11.00;10.70;;;29.00;99.90;;;;;;6206139;23;20227;-84
2022/08/06 12:29:32;;;;;;;11.25;10.95;;;29.30;99.90;;;;;;6207120;23;20192;-84
2022/08/06 12:32:01;;;;;;;11.43;11.13;;;29.40;99.90;;;;;;6203139;23;20191;-83
2022/08/06 12:34:29;;;;;;;11.27;10.98;;;29.80;99.90;;;;;;6196150;23;20201;-84
2022/08/06 12:36:58;;;;;;;11.27;10.98;;;30.10;99.90;;;;;;6199222;23;20206;-84
2022/08/06 12:40:23;;;;;;;11.20;10.90;;;30.30;99.90;;;;;;6199360;23;20557;-83
2022/08/06 12:42:25;;;;;;;11.27;10.98;;;30.10;99.90;;;;;;6199759;23;20259;-84
2022/08/06 12:45:04;;;;;;;11.10;10.80;;;30.40;99.90;;;;;;6198324;23;20222;-85
2022/08/06 12:47:34;;;;;;;11.00;10.70;;;30.50;99.90;;;;;;6199657;23;20198;-83
2022/08/06 12:50:02;;;;;;;11.20;10.90;;;30.50;99.90;;;;;;6199022;23;20314;-84
2022/08/06 12:52:29;;;;;;;10.90;10.60;;;30.60;99.90;;;;;;6199127;23;20229;-83
2022/08/06 12:55:07;;;;;;;10.90;10.60;;;30.50;99.90;;;;;;6197259;23;20208;-84
2022/08/06 12:57:37;;;;;;;11.00;10.70;;;30.70;99.90;;;;;;6198835;23;20208;-85
2022/08/06 13:00:08;;;;;;;10.80;10.50;;;30.70;99.90;;;;;;6197611;23;20216;-84
2022/08/06 13:02:44;;;;;;;11.15;10.85;;;30.80;99.90;;;;;;6197906;23;20192;-87
2022/08/06 13:05:25;;;;;;;10.95;10.65;;;31.20;99.90;;;;;;6198410;23;20258;-87
2022/08/06 13:10:53;;;;;;;11.00;10.70;;;31.00;99.40;;;;;;6196716;23;20199;-87
2022/08/06 13:13:37;;;;;;;10.90;10.60;;;31.00;99.90;;;;;;6196056;23;20206;-86
2022/08/06 13:16:21;;;;;;;10.75;10.45;;;31.10;99.90;;;;;;6196437;23;20314;-86
2022/08/06 13:19:11;;;;;;;10.70;10.40;;;31.20;99.50;;;;;;6196923;23;20215;-86
2022/08/06 13:21:40;;;;;;;10.88;10.57;;;31.20;98.70;;;;;;6196421;23;20278;-86
2022/08/06 13:24:28;;;;;;;10.93;10.63;;;31.40;98.70;;;;;;6196681;23;20227;-87
2022/08/06 13:27:01;;;;;;;10.85;10.55;;;31.50;99.90;;;;;;6193169;23;20231;-86
2022/08/06 13:29:30;;;;;;;10.70;10.40;;;31.50;97.70;;;;;;6196669;23;20194;-86
2022/08/06 13:32:05;;;;;;;10.73;10.43;;;31.30;97.90;;;;;;6196514;23;20219;-85
2022/08/06 13:34:53;;;;;;;10.70;10.40;;;31.30;99.90;;;;;;6196520;23;20233;-86
2022/08/06 13:37:48;;;;;;;10.60;10.30;;;31.30;99.40;;;;;;6198518;23;20274;-86
2022/08/06 13:40:16;;;;;;;10.68;10.38;;;30.90;96.80;;;;;;6197423;23;20196;-86
2022/08/06 13:46:19;;;;;;;10.82;10.52;;;30.30;98.80;;;;;;6104439;23;20916;-85
2022/08/06 13:48:48;;;;;;;10.80;10.50;;;30.60;96.50;;;;;;6104176;23;20222;-86
2022/08/06 13:51:27;;;;;;;10.63;10.32;;;30.60;95.00;;;;;;6172943;23;20263;-86
2022/08/06 13:54:03;;;;;;;10.90;10.60;;;30.90;96.80;;;;;;6197090;23;20200;-86
2022/08/06 13:56:33;;;;;;;11.02;10.73;;;31.40;96.50;;;;;;6196991;23;20187;-86
2022/08/06 13:59:03;;;;;;;10.80;10.50;;;31.30;94.80;;;;;;6197573;23;20207;-86
2022/08/06 14:01:34;;;;;;;10.75;10.45;;;31.20;95.70;;;;;;6197977;23;20204;-85
2022/08/06 14:04:02;;;;;;;11.02;10.73;;;31.50;96.50;;;;;;6197688;23;20195;-86
2022/08/06 14:06:33;;;;;;;10.52;10.23;;;31.70;95.10;;;;;;6197490;23;20195;-84
2022/08/06 14:09:01;;;;;;;10.50;10.20;;;32.00;94.90;;;;;;6197645;23;20199;-86
2022/08/06 14:11:29;;;;;;;10.55;10.25;;;31.90;94.40;;;;;;6197774;23;20219;-86
2022/08/06 14:13:58;;;;;;;10.90;10.60;;;31.90;93.90;;;;;;6198221;23;20203;-85
2022/08/06 14:16:30;;;;;;;10.90;10.60;;;32.00;94.70;;;;;;6198810;23;20203;-83
2022/08/06 14:18:58;;;;;;;10.73;10.43;;;32.10;94.60;;;;;;6204677;23;20246;-85
2022/08/06 14:21:55;;;;;;;10.90;10.60;;;32.30;93.50;;;;;;6197597;23;20243;-85
2022/08/06 14:24:36;;;;;;;10.80;10.50;;;31.90;94.10;;;;;;6199127;23;20243;-84
2022/08/06 14:27:13;;;;;;;10.70;10.40;;;31.60;93.00;;;;;;6197631;23;20235;-85
2022/08/06 14:32:27;;;;;;;10.80;10.50;;;31.60;93.40;;;;;;6198291;23;20227;-84
2022/08/06 14:34:58;;;;;;;10.70;10.40;;;31.70;93.10;;;;;;6198687;23;20192;-85
2022/08/06 14:37:27;;;;;;;10.40;10.10;;;31.90;93.80;;;;;;6199424;23;20208;-86
2022/08/06 14:45:30;;;;;;;10.60;10.30;;;32.20;92.70;;;;;;6217873;23;20195;-87
2022/08/06 14:47:59;;;;;;;10.68;10.38;;;32.20;93.80;;;;;;6217292;23;20203;-86
2022/08/06 14:50:27;;;;;;;10.70;10.40;;;32.20;93.40;;;;;;6217247;23;20188;-86
2022/08/06 14:53:06;;;;;;;11.20;10.90;;;32.60;94.10;;;;;;6216959;23;20267;-86
2022/08/06 14:55:35;;;;;;;10.70;10.40;;;32.90;93.00;;;;;;6217081;23;20191;-86
2022/08/06 14:58:05;;;;;;;11.02;10.73;;;33.10;93.10;;;;;;6215557;23;20200;-85
2022/08/06 15:00:34;;;;;;;11.30;11.00;;;33.10;93.90;;;;;;6213066;23;20211;-86
2022/08/06 15:03:05;;;;;;;11.00;10.70;;;33.20;94.40;;;;;;6216774;23;20198;-86
2022/08/06 15:05:37;;;;;;;11.10;10.80;;;33.40;94.10;;;;;;6217023;23;20190;-85
2022/08/06 15:08:12;;;;;;;11.00;10.70;;;33.40;92.90;;;;;;6217042;23;20273;-86
2022/08/06 15:10:43;;;;;;;11.20;10.90;;;33.20;93.20;;;;;;6216731;23;20191;-85
2022/08/06 15:13:11;;;;;;;10.90;10.60;;;33.10;93.30;;;;;;6217764;23;20180;-84
2022/08/06 15:15:40;;;;;;;11.13;10.82;;;32.50;92.40;;;;;;6217027;23;20199;-83
2022/08/06 15:18:10;;;;;;;10.98;10.68;;;32.40;94.60;;;;;;6217848;23;20207;-84
2022/08/06 15:20:41;;;;;;;11.00;10.70;;;32.50;92.70;;;;;;6217687;23;20176;-84
2022/08/06 15:23:21;;;;;;;11.10;10.80;;;32.50;92.60;;;;;;6217331;23;20183;-85
2022/08/06 15:25:48;;;;;;;10.90;10.60;;;32.40;94.70;;;;;;6209124;23;20218;-84
2022/08/06 15:28:17;;;;;;;11.35;10.98;;;32.60;94.40;;;;;;6202494;23;20195;-86
2022/08/06 15:30:46;;;;;;;11.00;10.70;;;32.60;92.40;;;;;;6198261;23;20206;-85
2022/08/06 15:33:16;;;;;;;11.18;10.88;;;32.30;94.40;;;;;;6197055;23;20195;-85
2022/08/06 15:35:45;;;;;;;11.00;10.70;;;32.20;93.70;;;;;;6196202;23;20200;-84
2022/08/06 15:38:18;;;;;;;11.20;10.90;;;32.40;93.00;;;;;;6197179;23;20278;-85
2022/08/06 15:40:45;;;;;;;10.88;10.57;;;32.70;93.20;;;;;;6196387;23;20224;-83
2022/08/06 15:43:14;;;;;;;11.27;10.98;;;32.90;93.50;;;;;;6196127;23;20210;-85
2022/08/06 15:45:42;;;;;;;11.10;10.80;;;32.70;92.30;;;;;;6196134;23;20226;-83
2022/08/06 15:48:13;;;;;;;11.10;10.80;;;32.90;92.90;;;;;;6196033;23;20230;-84
2022/08/06 15:50:43;;;;;;;11.23;10.93;;;33.20;92.20;;;;;;6196962;23;20597;-85
2022/08/06 15:53:14;;;;;;;11.10;10.80;;;33.30;91.20;;;;;;6192180;23;20202;-84
2022/08/06 15:55:42;;;;;;;11.25;10.95;;;32.90;91.90;;;;;;6196567;23;20199;-85
2022/08/06 15:58:11;;;;;;;11.02;10.73;;;32.90;91.40;;;;;;6196835;23;20235;-85
2022/08/06 16:00:40;;;;;;;11.13;10.82;;;33.00;91.40;;;;;;6196418;23;20195;-85
2022/08/06 16:03:12;;;;;;;11.00;10.70;;;32.90;90.20;;;;;;6196425;23;20203;-83
2022/08/06 16:05:51;;;;;;;11.35;11.05;;;32.80;90.30;;;;;;6196117;23;20187;-85
2022/08/06 16:08:27;;;;;;;11.57;11.18;;;32.80;89.90;;;;;;6195923;23;20226;-84
2022/08/06 16:10:56;;;;;;;11.65;11.25;;;32.30;89.80;;;;;;6196486;23;20258;-83
2022/08/06 16:13:25;;;;;;;11.38;11.07;;;32.10;91.20;;;;;;6195705;23;20235;-84
2022/08/06 16:16:07;;;;;;;11.25;10.95;;;32.00;91.60;;;;;;6195923;23;20227;-85
2022/08/06 16:18:36;;;;;;;10.75;10.45;;;32.20;91.90;;;;;;6197136;23;20235;-84
2022/08/06 16:21:04;;;;;;;10.90;10.60;;;32.30;91.40;;;;;;6194230;23;20207;-83
2022/08/06 16:23:33;;;;;;;11.20;10.90;;;32.40;90.50;;;;;;6209022;23;20218;-82
2022/08/06 16:26:01;;;;;;;11.02;10.73;;;32.50;91.10;;;;;;6216956;23;20191;-83
2022/08/06 16:28:38;;;;;;;11.00;10.70;;;32.50;91.60;;;;;;6197909;23;20207;-86
2022/08/06 16:31:19;;;;;;;11.15;10.85;;;32.70;90.70;;;;;;6196423;23;20203;-86
2022/08/06 16:33:47;;;;;;;11.00;10.70;;;32.80;89.40;;;;;;6196345;23;20223;-87
2022/08/06 16:36:16;;;;;;;10.73;10.43;;;32.90;89.30;;;;;;6195936;23;20202;-83
2022/08/06 16:38:46;;;;;;;10.80;10.50;;;32.90;90.20;;;;;;6196147;23;20265;-85
2022/08/06 16:41:14;;;;;;;10.80;10.50;;;33.00;87.60;;;;;;6196095;23;20188;-84
2022/08/06 16:43:46;;;;;;;10.90;10.60;;;33.10;87.70;;;;;;6201714;23;20214;-84
2022/08/06 16:46:25;;;;;;;10.70;10.40;;;33.30;87.70;;;;;;6202576;23;20256;-85
2022/08/06 16:49:05;;;;;;;10.95;10.65;;;33.50;89.90;;;;;;6202540;23;20207;-86
2022/08/06 16:51:33;;;;;;;10.80;10.50;;;33.80;84.80;;;;;;6196324;23;20202;-84
2022/08/06 16:54:03;;;;;;;11.07;10.77;;;33.40;82.80;;;;;;6195691;23;20252;-85
2022/08/06 16:56:31;;;;;;;11.00;10.70;;;33.20;84.50;;;;;;6195354;23;20204;-85
2022/08/06 16:58:58;;;;;;;10.98;10.68;;;33.10;84.60;;;;;;6196169;23;20231;-84
2022/08/06 17:01:36;;;;;;;10.90;10.60;;;33.40;85.10;;;;;;6195096;23;20215;-85
2022/08/06 17:04:06;;;;;;;10.82;10.52;;;33.60;85.90;;;;;;6195169;23;20280;-83
2022/08/06 17:06:35;;;;;;;10.90;10.60;;;33.80;83.10;;;;;;6195328;23;20503;-84
2022/08/06 17:09:09;;;;;;;10.93;10.63;;;33.80;82.20;;;;;;6196625;23;20203;-85
2022/08/06 17:11:38;;;;;;;10.90;10.60;;;33.90;84.20;;;;;;6196565;23;20270;-84
2022/08/06 17:21:52;;;;;;;10.85;10.55;;;34.40;81.20;;;;;;6084269;23;20203;-83
2022/08/06 17:24:23;;;;;;;10.90;10.60;;;34.30;80.60;;;;;;6208125;23;20258;-83
2022/08/06 17:27:12;;;;;;;11.00;10.70;;;34.00;80.60;;;;;;6202681;23;20196;-83
2022/08/06 17:29:51;;;;;;;10.90;10.60;;;33.40;81.50;;;;;;6210575;23;20171;-82
2022/08/06 17:32:35;;;;;;;10.90;10.60;;;33.30;81.90;;;;;;6214672;23;20199;-83
2022/08/06 17:35:07;;;;;;;11.10;10.80;;;33.20;80.80;;;;;;6209272;23;20243;-82
2022/08/06 17:37:37;;;;;;;10.90;10.60;;;33.10;82.00;;;;;;6211944;23;20193;-82
2022/08/06 17:40:09;;;;;;;10.98;10.68;;;33.10;81.80;;;;;;6214502;23;20196;-82
2022/08/06 17:42:41;;;;;;;11.10;10.80;;;33.00;82.80;;;;;;6207359;23;20203;-84
2022/08/06 17:45:09;;;;;;;11.10;10.80;;;32.50;82.20;;;;;;6197806;23;20203;-84
2022/08/06 17:47:44;;;;;;;11.10;10.80;;;32.10;82.70;;;;;;6200160;23;20207;-85
2022/08/06 17:50:17;;;;;;;11.13;10.82;;;31.70;82.60;;;;;;6195939;23;20202;-83
2022/08/06 17:52:46;;;;;;;11.13;10.82;;;31.20;82.80;;;;;;6194713;23;20199;-82
2022/08/06 17:55:16;;;;;;;10.93;10.63;;;30.70;83.30;;;;;;6195016;23;20265;-84
2022/08/06 17:57:47;;;;;;;11.00;10.70;;;30.20;84.50;;;;;;6195228;23;20223;-89
2022/08/06 18:00:15;;;;;;;11.45;11.05;;;29.70;84.50;;;;;;6195784;23;20199;-83
2022/08/06 18:03:08;;;;;;;11.20;10.90;;;29.20;86.00;;;;;;6198906;23;20230;-84
2022/08/06 18:05:36;;;;;;;11.55;11.15;;;28.60;86.90;;;;;;6198614;23;20196;-82
2022/08/06 18:08:05;;;;;;;11.57;11.18;;;28.00;88.00;;;;;;6199153;23;20239;-82
2022/08/06 18:10:36;;;;;;;11.38;11.05;;;27.70;88.80;;;;;;6198016;23;20228;-82
2022/08/06 18:13:06;;;;;;;11.60;11.20;;;27.50;90.10;;;;;;6197748;23;20490;-82
2022/08/06 18:18:33;;;;;;;11.20;10.90;;;26.70;90.80;;;;;;5138913;27;1397116;-81
2022/08/06 18:21:02;;;;;;;11.30;11.00;;;26.40;91.30;;;;;;5157408;27;20258;-81